Meteo Giornale » Osservazioni meteo Svizzera » Lugano

ore: 09:20 - Osservazioni Meteo Lugano
Lat. 46° 0' N Lon. 8° 58' E Alt. 273 metri s.l.m.

molto_nuvoloso Europe/Zurich

-0 °C

Molto Nuvoloso

Temp. 24 Ore

-3 °C

11 °C

Nord

1.8 Km/h

Dew point -3 °C

Umidità 80 %

Visibilità  10 Km

Il sole sorge alle ore 07:53

Il sole tramonta alle ore 17:19

Data e Ora Cielo e Fenomeni T °C DP °C Um. % Pres. hPa Vis. km Vento km/h
Oggi h: 09:20 molto_nuvoloso Molto Nuvoloso -0 -3 80 1027 10 N 1.8
Oggi h: 08:50 nuvoloso Nuvoloso -2 -4 86 1027 10 N 1.8
Oggi h: 08:20 poco_nuvoloso Poco Nuvoloso -2 -4 86 1027 10 N 3.7
Oggi h: 07:50 sereno Sereno -2 -3 92 1027 10 N 5.5
Oggi h: 07:20 sereno Sereno 9 -6 33 1027 10 S 7.4
Oggi h: 06:50 sereno Sereno 9 -6 33 1027 10 S 7.4
Oggi h: 06:20 poco_nuvoloso Poco Nuvoloso 9 -6 33 1027 10 S 7.4
Oggi h: 05:50 sereno Sereno 9 -6 33 1027 10 S 7.4
Oggi h: 05:20 nuvoloso Nuvoloso 9 -6 33 1027 10 S 7.4
Oggi h: 04:50 sereno Sereno 9 -6 33 1027 8 S 7.4
Oggi h: 04:20 sereno Sereno -3 -4 92 1028 10 N 9.3
Oggi h: 03:50 sereno Sereno -2 -3 92 1028 10 N 1.8
Oggi h: 03:20 sereno Sereno 9 -6 33 1028 9 S 7.4
Oggi h: 02:50 sereno Sereno 9 -6 33 1028 10 S 7.4
Oggi h: 02:20 sereno Sereno 9 -6 33 1028 10 S 7.4
Oggi h: 01:50 sereno Sereno -2 -4 86 1029 10 N 5.5
Oggi h: 01:20 sereno Sereno -2 -3 92 1029 9 N 1.8
Oggi h: 00:50 sereno Sereno 9 -6 33 1029 10 S 7.4
Oggi h: 00:20 sereno Sereno 9 -6 33 1030 9 S 7.4
Ieri h: 23:50 sereno Sereno 9 -6 33 1030 10 S 7.4
Ieri h: 23:20 sereno Sereno -2 -4 86 1030 10 N 3.7
Ieri h: 22:50 sereno Sereno 9 -6 33 1030 10 S 7.4
Ieri h: 22:20 sereno Sereno -1 -4 80 1030 10 N 3.7
Ieri h: 21:50 sereno Sereno -1 -3 86 1030 10 N 5.5
Ieri h: 21:20 sereno Sereno -1 -3 86 1030 10 N 3.7
Ieri h: 20:50 sereno Sereno 1 -2 80 1030 10 N 1.8
Ieri h: 20:20 sereno Sereno 0 -3 80 1030 10 N 3.7
Ieri h: 19:50 sereno Sereno 2 -1 80 1030 10 N 1.8
Ieri h: 19:20 sereno Sereno 2 -2 74 1030 10 N 1.8
Ieri h: 18:50 sereno Sereno 3 -3 64 1030 10 N 1.8
Ieri h: 18:20 sereno Sereno 3 -3 64 1030 10 N 3.7
Ieri h: 17:50 sereno Sereno 5 -2 60 1030 10 N 1.8
Ieri h: 17:20 sereno Sereno 8 -3 45 1029 10 N 5.5
Ieri h: 16:50 sereno Sereno 8 -1 52 1029 10 S/SO 7.4
Ieri h: 16:20 sereno Sereno 10 -2 42 1029 10 N 5.5
Ieri h: 15:50 sereno Sereno 11 -3 37 1029 10 N 1.8
Ieri h: 15:20 sereno Sereno 9 -1 49 1029 10 N 3.7
Ieri h: 14:50 sereno Sereno 9 -1 49 1029 10 N 5.5
Ieri h: 14:20 sereno Sereno 9 -1 49 1029 10 S/SO 9.3
Ieri h: 13:50 sereno Sereno 10 -5 34 1030 10 N 1.8
Ieri h: 13:20 sereno Sereno 9 -4 39 1030 10 N 1.8
Ieri h: 12:50 sereno Sereno 8 -3 45 1031 10 N 1.8
Ieri h: 12:20 sereno Sereno 8 -3 45 1032 10 N 1.8
Ieri h: 11:50 sereno Sereno 6 -3 52 1032 10 N 1.8
Ieri h: 11:20 sereno Sereno 5 -4 52 1032 10 N 3.7
Ieri h: 10:50 sereno Sereno 5 -4 52 1032 10 N 3.7
Ieri h: 10:20 sereno Sereno 2 -3 69 1032 10 N 0
Ieri h: 09:50 sereno Sereno 1 -3 74 1032 10 N 1.8
Ieri h: 09:20 sereno Sereno 9 -6 33 1032 10 S 7.4
Ieri h: 08:50 sereno Sereno -2 -4 86 1032 10 N 5.5